sensor_id;sensor_type;location;lat;lon;timestamp;temperature;humidity
9177;DHT22;4623;54.310;10.112;2022-12-24T00:01:59;4.80;99.90
9177;DHT22;4623;54.310;10.112;2022-12-24T00:04:24;4.80;99.90
9177;DHT22;4623;54.310;10.112;2022-12-24T00:06:50;4.80;99.90
9177;DHT22;4623;54.310;10.112;2022-12-24T00:09:15;4.70;99.90
9177;DHT22;4623;54.310;10.112;2022-12-24T00:11:41;4.70;99.90
9177;DHT22;4623;54.310;10.112;2022-12-24T00:14:06;4.60;99.90
9177;DHT22;4623;54.310;10.112;2022-12-24T00:16:32;4.60;99.90
9177;DHT22;4623;54.310;10.112;2022-12-24T00:18:57;4.60;99.90
9177;DHT22;4623;54.310;10.112;2022-12-24T00:21:23;4.60;99.90
9177;DHT22;4623;54.310;10.112;2022-12-24T00:23:48;4.60;99.90
9177;DHT22;4623;54.310;10.112;2022-12-24T00:26:14;4.50;99.90
9177;DHT22;4623;54.310;10.112;2022-12-24T00:28:40;4.50;99.90
9177;DHT22;4623;54.310;10.112;2022-12-24T00:31:10;4.50;99.90
9177;DHT22;4623;54.310;10.112;2022-12-24T00:33:36;4.50;99.90
9177;DHT22;4623;54.310;10.112;2022-12-24T00:36:02;4.50;99.90
9177;DHT22;4623;54.310;10.112;2022-12-24T00:38:27;4.60;99.90
9177;DHT22;4623;54.310;10.112;2022-12-24T00:40:58;4.60;99.90
9177;DHT22;4623;54.310;10.112;2022-12-24T00:43:24;4.60;99.90
9177;DHT22;4623;54.310;10.112;2022-12-24T00:45:50;4.70;99.90
9177;DHT22;4623;54.310;10.112;2022-12-24T00:48:15;4.80;99.90
9177;DHT22;4623;54.310;10.112;2022-12-24T00:50:41;4.80;99.90
9177;DHT22;4623;54.310;10.112;2022-12-24T00:53:06;4.90;99.90
9177;DHT22;4623;54.310;10.112;2022-12-24T00:55:32;4.90;99.90
9177;DHT22;4623;54.310;10.112;2022-12-24T00:57:57;4.90;99.90
9177;DHT22;4623;54.310;10.112;2022-12-24T01:00:23;4.90;99.90
9177;DHT22;4623;54.310;10.112;2022-12-24T01:02:48;4.90;99.90
9177;DHT22;4623;54.310;10.112;2022-12-24T01:05:14;4.90;99.90
9177;DHT22;4623;54.310;10.112;2022-12-24T01:07:41;4.90;99.90
9177;DHT22;4623;54.310;10.112;2022-12-24T01:10:09;4.90;99.90
9177;DHT22;4623;54.310;10.112;2022-12-24T01:12:35;4.80;99.90
9177;DHT22;4623;54.310;10.112;2022-12-24T01:15:01;4.80;99.90
9177;DHT22;4623;54.310;10.112;2022-12-24T01:17:26;4.70;99.90
9177;DHT22;4623;54.310;10.112;2022-12-24T01:19:52;4.70;99.90
9177;DHT22;4623;54.310;10.112;2022-12-24T01:22:17;4.60;99.90
9177;DHT22;4623;54.310;10.112;2022-12-24T01:24:43;4.60;99.90
9177;DHT22;4623;54.310;10.112;2022-12-24T01:27:08;4.70;99.90
9177;DHT22;4623;54.310;10.112;2022-12-24T01:29:34;4.70;99.90
9177;DHT22;4623;54.310;10.112;2022-12-24T01:32:00;4.70;99.90
9177;DHT22;4623;54.310;10.112;2022-12-24T01:34:25;4.70;99.90
9177;DHT22;4623;54.310;10.112;2022-12-24T01:36:51;4.70;99.90
9177;DHT22;4623;54.310;10.112;2022-12-24T01:39:16;4.70;99.90
9177;DHT22;4623;54.310;10.112;2022-12-24T01:41:42;4.70;99.90
9177;DHT22;4623;54.310;10.112;2022-12-24T01:44:27;4.70;99.90
9177;DHT22;4623;54.310;10.112;2022-12-24T01:47:15;4.80;99.90
9177;DHT22;4623;54.310;10.112;2022-12-24T01:49:47;4.70;99.90
9177;DHT22;4623;54.310;10.112;2022-12-24T01:52:26;4.70;99.90
9177;DHT22;4623;54.310;10.112;2022-12-24T01:54:59;4.70;99.90
9177;DHT22;4623;54.310;10.112;2022-12-24T01:57:48;4.70;99.90
9177;DHT22;4623;54.310;10.112;2022-12-24T02:00:15;4.70;99.90
9177;DHT22;4623;54.310;10.112;2022-12-24T02:02:46;4.70;99.90
9177;DHT22;4623;54.310;10.112;2022-12-24T02:07:43;4.80;99.90
9177;DHT22;4623;54.310;10.112;2022-12-24T02:10:11;4.70;99.90
9177;DHT22;4623;54.310;10.112;2022-12-24T02:12:38;4.80;99.90
9177;DHT22;4623;54.310;10.112;2022-12-24T02:15:07;4.70;99.90
9177;DHT22;4623;54.310;10.112;2022-12-24T02:18:04;4.70;99.90
9177;DHT22;4623;54.310;10.112;2022-12-24T02:21:04;4.80;99.90
9177;DHT22;4623;54.310;10.112;2022-12-24T02:29:04;4.80;99.90
9177;DHT22;4623;54.310;10.112;2022-12-24T02:31:58;4.70;99.90
9177;DHT22;4623;54.310;10.112;2022-12-24T02:42:45;4.70;99.90
9177;DHT22;4623;54.310;10.112;2022-12-24T02:45:22;4.70;99.90
9177;DHT22;4623;54.310;10.112;2022-12-24T02:47:50;4.70;99.90
9177;DHT22;4623;54.310;10.112;2022-12-24T02:50:18;4.70;99.90
9177;DHT22;4623;54.310;10.112;2022-12-24T02:52:45;4.70;99.90
9177;DHT22;4623;54.310;10.112;2022-12-24T02:58:09;4.60;99.90
9177;DHT22;4623;54.310;10.112;2022-12-24T03:01:02;4.70;99.90
9177;DHT22;4623;54.310;10.112;2022-12-24T03:06:49;4.60;99.90
9177;DHT22;4623;54.310;10.112;2022-12-24T03:11:47;4.60;99.90
9177;DHT22;4623;54.310;10.112;2022-12-24T03:14:15;4.70;99.90
9177;DHT22;4623;54.310;10.112;2022-12-24T03:16:42;4.70;99.90
9177;DHT22;4623;54.310;10.112;2022-12-24T03:19:09;4.80;99.90
9177;DHT22;4623;54.310;10.112;2022-12-24T03:21:37;4.80;99.90
9177;DHT22;4623;54.310;10.112;2022-12-24T03:24:04;4.80;99.90
9177;DHT22;4623;54.310;10.112;2022-12-24T03:26:31;4.80;99.90
9177;DHT22;4623;54.310;10.112;2022-12-24T03:28:57;4.80;99.90
9177;DHT22;4623;54.310;10.112;2022-12-24T03:31:23;4.70;99.90
9177;DHT22;4623;54.310;10.112;2022-12-24T03:33:49;4.80;99.90
9177;DHT22;4623;54.310;10.112;2022-12-24T03:36:14;4.80;99.90
9177;DHT22;4623;54.310;10.112;2022-12-24T03:38:40;4.90;99.90
9177;DHT22;4623;54.310;10.112;2022-12-24T03:41:07;4.80;99.90
9177;DHT22;4623;54.310;10.112;2022-12-24T03:43:33;4.90;99.90
9177;DHT22;4623;54.310;10.112;2022-12-24T03:46:05;4.90;99.90
9177;DHT22;4623;54.310;10.112;2022-12-24T03:48:32;4.90;99.90
9177;DHT22;4623;54.310;10.112;2022-12-24T03:50:58;5.00;99.90
9177;DHT22;4623;54.310;10.112;2022-12-24T03:53:24;5.00;99.90
9177;DHT22;4623;54.310;10.112;2022-12-24T03:55:49;5.00;99.90
9177;DHT22;4623;54.310;10.112;2022-12-24T03:58:15;5.00;99.90
9177;DHT22;4623;54.310;10.112;2022-12-24T04:00:40;5.10;99.90
9177;DHT22;4623;54.310;10.112;2022-12-24T04:03:06;5.10;99.90
9177;DHT22;4623;54.310;10.112;2022-12-24T04:05:31;5.10;99.90
9177;DHT22;4623;54.310;10.112;2022-12-24T04:07:57;5.10;99.90
9177;DHT22;4623;54.310;10.112;2022-12-24T04:10:22;5.10;99.90
9177;DHT22;4623;54.310;10.112;2022-12-24T04:12:48;5.10;99.90
9177;DHT22;4623;54.310;10.112;2022-12-24T04:15:13;5.10;99.90
9177;DHT22;4623;54.310;10.112;2022-12-24T04:17:39;5.10;99.90
9177;DHT22;4623;54.310;10.112;2022-12-24T04:20:05;5.00;99.90
9177;DHT22;4623;54.310;10.112;2022-12-24T04:22:31;5.00;99.90
9177;DHT22;4623;54.310;10.112;2022-12-24T04:24:56;5.00;99.90
9177;DHT22;4623;54.310;10.112;2022-12-24T04:27:22;5.00;99.90
9177;DHT22;4623;54.310;10.112;2022-12-24T04:29:47;5.00;99.90
9177;DHT22;4623;54.310;10.112;2022-12-24T04:32:13;5.10;99.90
9177;DHT22;4623;54.310;10.112;2022-12-24T04:34:39;5.10;99.90
9177;DHT22;4623;54.310;10.112;2022-12-24T04:37:05;5.00;99.90
9177;DHT22;4623;54.310;10.112;2022-12-24T04:39:30;5.10;99.90
9177;DHT22;4623;54.310;10.112;2022-12-24T04:41:56;5.10;99.90
9177;DHT22;4623;54.310;10.112;2022-12-24T04:44:21;5.10;99.90
9177;DHT22;4623;54.310;10.112;2022-12-24T04:46:47;5.10;99.90
9177;DHT22;4623;54.310;10.112;2022-12-24T04:49:12;5.10;99.90
9177;DHT22;4623;54.310;10.112;2022-12-24T04:51:38;5.10;99.90
9177;DHT22;4623;54.310;10.112;2022-12-24T04:54:04;5.10;99.90
9177;DHT22;4623;54.310;10.112;2022-12-24T04:56:31;5.10;99.90
9177;DHT22;4623;54.310;10.112;2022-12-24T04:58:58;5.10;99.90
9177;DHT22;4623;54.310;10.112;2022-12-24T05:01:27;5.10;99.90
9177;DHT22;4623;54.310;10.112;2022-12-24T05:03:53;5.10;99.90
9177;DHT22;4623;54.310;10.112;2022-12-24T05:06:22;5.10;99.90
9177;DHT22;4623;54.310;10.112;2022-12-24T05:08:48;5.20;99.90
9177;DHT22;4623;54.310;10.112;2022-12-24T05:11:14;5.20;99.90
9177;DHT22;4623;54.310;10.112;2022-12-24T05:13:41;5.20;99.90
9177;DHT22;4623;54.310;10.112;2022-12-24T05:16:08;5.20;99.90
9177;DHT22;4623;54.310;10.112;2022-12-24T05:18:34;5.30;99.90
9177;DHT22;4623;54.310;10.112;2022-12-24T05:20:59;5.20;99.90
9177;DHT22;4623;54.310;10.112;2022-12-24T05:23:25;5.20;99.90
9177;DHT22;4623;54.310;10.112;2022-12-24T05:26:25;5.20;99.90
9177;DHT22;4623;54.310;10.112;2022-12-24T05:28:53;5.30;99.90
9177;DHT22;4623;54.310;10.112;2022-12-24T05:31:21;5.30;99.90
9177;DHT22;4623;54.310;10.112;2022-12-24T05:33:47;5.20;99.90
9177;DHT22;4623;54.310;10.112;2022-12-24T05:36:13;5.20;99.90
9177;DHT22;4623;54.310;10.112;2022-12-24T05:38:38;5.20;99.90
9177;DHT22;4623;54.310;10.112;2022-12-24T05:41:05;5.20;99.90
9177;DHT22;4623;54.310;10.112;2022-12-24T05:43:31;5.20;99.90
9177;DHT22;4623;54.310;10.112;2022-12-24T05:46:01;5.20;99.90
9177;DHT22;4623;54.310;10.112;2022-12-24T05:48:27;5.20;99.90
9177;DHT22;4623;54.310;10.112;2022-12-24T05:50:53;5.20;99.90
9177;DHT22;4623;54.310;10.112;2022-12-24T05:53:19;5.20;99.90
9177;DHT22;4623;54.310;10.112;2022-12-24T05:55:45;5.20;99.90
9177;DHT22;4623;54.310;10.112;2022-12-24T05:58:10;5.20;99.90
9177;DHT22;4623;54.310;10.112;2022-12-24T06:00:36;5.20;99.90
9177;DHT22;4623;54.310;10.112;2022-12-24T06:03:01;5.20;99.90
9177;DHT22;4623;54.310;10.112;2022-12-24T06:05:27;5.20;99.90
9177;DHT22;4623;54.310;10.112;2022-12-24T06:07:53;5.20;99.90
9177;DHT22;4623;54.310;10.112;2022-12-24T06:10:18;5.20;99.90
9177;DHT22;4623;54.310;10.112;2022-12-24T06:12:44;5.20;99.90
9177;DHT22;4623;54.310;10.112;2022-12-24T06:15:10;5.20;99.90
9177;DHT22;4623;54.310;10.112;2022-12-24T06:17:35;5.20;99.90
9177;DHT22;4623;54.310;10.112;2022-12-24T06:20:01;5.10;99.90
9177;DHT22;4623;54.310;10.112;2022-12-24T06:22:27;5.10;99.90
9177;DHT22;4623;54.310;10.112;2022-12-24T06:24:52;5.00;99.90
9177;DHT22;4623;54.310;10.112;2022-12-24T06:27:18;5.00;99.90
9177;DHT22;4623;54.310;10.112;2022-12-24T06:29:44;5.00;99.90
9177;DHT22;4623;54.310;10.112;2022-12-24T06:32:09;4.90;99.90
9177;DHT22;4623;54.310;10.112;2022-12-24T06:34:35;4.80;99.90
9177;DHT22;4623;54.310;10.112;2022-12-24T06:37:00;4.80;99.90
9177;DHT22;4623;54.310;10.112;2022-12-24T06:39:26;4.80;99.90
9177;DHT22;4623;54.310;10.112;2022-12-24T06:41:51;4.80;99.90
9177;DHT22;4623;54.310;10.112;2022-12-24T06:44:17;4.80;99.90
9177;DHT22;4623;54.310;10.112;2022-12-24T06:46:42;4.70;99.90
9177;DHT22;4623;54.310;10.112;2022-12-24T06:49:08;4.80;99.90
9177;DHT22;4623;54.310;10.112;2022-12-24T06:51:34;4.70;99.90
9177;DHT22;4623;54.310;10.112;2022-12-24T06:53:59;4.70;99.90
9177;DHT22;4623;54.310;10.112;2022-12-24T06:56:25;4.70;99.90
9177;DHT22;4623;54.310;10.112;2022-12-24T06:58:50;4.60;99.90
9177;DHT22;4623;54.310;10.112;2022-12-24T07:01:17;4.60;99.90
9177;DHT22;4623;54.310;10.112;2022-12-24T07:03:43;4.60;99.90
9177;DHT22;4623;54.310;10.112;2022-12-24T07:06:19;4.60;99.90
9177;DHT22;4623;54.310;10.112;2022-12-24T07:08:45;4.60;99.90
9177;DHT22;4623;54.310;10.112;2022-12-24T07:11:11;4.50;99.90
9177;DHT22;4623;54.310;10.112;2022-12-24T07:13:36;4.50;99.90
9177;DHT22;4623;54.310;10.112;2022-12-24T07:16:03;4.50;99.90
9177;DHT22;4623;54.310;10.112;2022-12-24T07:18:29;4.60;99.90
9177;DHT22;4623;54.310;10.112;2022-12-24T07:20:55;4.60;99.90
9177;DHT22;4623;54.310;10.112;2022-12-24T07:23:21;4.60;99.90
9177;DHT22;4623;54.310;10.112;2022-12-24T07:25:46;4.60;99.90
9177;DHT22;4623;54.310;10.112;2022-12-24T07:28:12;4.60;99.90
9177;DHT22;4623;54.310;10.112;2022-12-24T07:30:37;4.60;99.90
9177;DHT22;4623;54.310;10.112;2022-12-24T07:33:03;4.60;99.90
9177;DHT22;4623;54.310;10.112;2022-12-24T07:35:29;4.70;99.90
9177;DHT22;4623;54.310;10.112;2022-12-24T07:37:55;4.70;99.90
9177;DHT22;4623;54.310;10.112;2022-12-24T07:40:20;4.70;99.90
9177;DHT22;4623;54.310;10.112;2022-12-24T07:42:46;4.70;99.90
9177;DHT22;4623;54.310;10.112;2022-12-24T07:45:11;4.70;99.90
9177;DHT22;4623;54.310;10.112;2022-12-24T07:47:37;4.70;99.90
9177;DHT22;4623;54.310;10.112;2022-12-24T07:50:04;4.70;99.90
9177;DHT22;4623;54.310;10.112;2022-12-24T07:52:30;4.80;99.90
9177;DHT22;4623;54.310;10.112;2022-12-24T07:54:55;4.80;99.90
9177;DHT22;4623;54.310;10.112;2022-12-24T07:57:21;4.80;99.90
9177;DHT22;4623;54.310;10.112;2022-12-24T07:59:46;4.80;99.90
9177;DHT22;4623;54.310;10.112;2022-12-24T08:02:12;4.90;99.90
9177;DHT22;4623;54.310;10.112;2022-12-24T08:04:38;4.90;99.90
9177;DHT22;4623;54.310;10.112;2022-12-24T08:07:04;4.90;99.90
9177;DHT22;4623;54.310;10.112;2022-12-24T08:09:32;5.00;99.90
9177;DHT22;4623;54.310;10.112;2022-12-24T08:11:57;5.00;99.90
9177;DHT22;4623;54.310;10.112;2022-12-24T08:14:23;5.00;99.90
9177;DHT22;4623;54.310;10.112;2022-12-24T08:16:48;5.10;99.90
9177;DHT22;4623;54.310;10.112;2022-12-24T08:19:14;5.10;99.90
9177;DHT22;4623;54.310;10.112;2022-12-24T08:21:39;5.10;99.90
9177;DHT22;4623;54.310;10.112;2022-12-24T08:24:05;5.10;99.90
9177;DHT22;4623;54.310;10.112;2022-12-24T08:26:31;5.10;99.90
9177;DHT22;4623;54.310;10.112;2022-12-24T08:28:57;5.00;99.90
9177;DHT22;4623;54.310;10.112;2022-12-24T08:31:22;5.00;99.90
9177;DHT22;4623;54.310;10.112;2022-12-24T08:33:48;5.10;99.90
9177;DHT22;4623;54.310;10.112;2022-12-24T08:36:13;5.10;99.90
9177;DHT22;4623;54.310;10.112;2022-12-24T08:38:39;5.10;99.90
9177;DHT22;4623;54.310;10.112;2022-12-24T08:41:04;5.10;99.90
9177;DHT22;4623;54.310;10.112;2022-12-24T08:43:30;5.10;99.90
9177;DHT22;4623;54.310;10.112;2022-12-24T08:46:01;5.10;99.90
9177;DHT22;4623;54.310;10.112;2022-12-24T08:48:28;5.20;99.90
9177;DHT22;4623;54.310;10.112;2022-12-24T08:50:54;5.10;99.90
9177;DHT22;4623;54.310;10.112;2022-12-24T08:53:19;5.10;99.90
9177;DHT22;4623;54.310;10.112;2022-12-24T08:55:45;5.10;99.90
9177;DHT22;4623;54.310;10.112;2022-12-24T08:58:10;5.10;99.90
9177;DHT22;4623;54.310;10.112;2022-12-24T09:00:36;5.10;99.90
9177;DHT22;4623;54.310;10.112;2022-12-24T09:03:02;5.10;99.90
9177;DHT22;4623;54.310;10.112;2022-12-24T09:05:27;5.10;99.90
9177;DHT22;4623;54.310;10.112;2022-12-24T09:07:53;5.10;99.90
9177;DHT22;4623;54.310;10.112;2022-12-24T09:10:19;5.10;99.90
9177;DHT22;4623;54.310;10.112;2022-12-24T09:12:44;5.10;99.90
9177;DHT22;4623;54.310;10.112;2022-12-24T09:15:10;5.20;99.90
9177;DHT22;4623;54.310;10.112;2022-12-24T09:17:36;5.20;99.90
9177;DHT22;4623;54.310;10.112;2022-12-24T09:20:03;5.20;99.90
9177;DHT22;4623;54.310;10.112;2022-12-24T09:22:29;5.30;99.90
9177;DHT22;4623;54.310;10.112;2022-12-24T09:24:54;5.30;99.90
9177;DHT22;4623;54.310;10.112;2022-12-24T09:27:20;5.30;99.90
9177;DHT22;4623;54.310;10.112;2022-12-24T09:29:46;5.40;99.90
9177;DHT22;4623;54.310;10.112;2022-12-24T09:32:11;5.40;99.90
9177;DHT22;4623;54.310;10.112;2022-12-24T09:34:37;5.50;99.90
9177;DHT22;4623;54.310;10.112;2022-12-24T09:37:03;5.50;99.90
9177;DHT22;4623;54.310;10.112;2022-12-24T09:39:28;5.50;99.90
9177;DHT22;4623;54.310;10.112;2022-12-24T09:42:11;5.50;99.90
9177;DHT22;4623;54.310;10.112;2022-12-24T09:47:28;5.50;99.90
9177;DHT22;4623;54.310;10.112;2022-12-24T09:50:01;5.60;99.90
9177;DHT22;4623;54.310;10.112;2022-12-24T09:52:35;5.60;99.90
9177;DHT22;4623;54.310;10.112;2022-12-24T09:55:33;5.50;99.90
9177;DHT22;4623;54.310;10.112;2022-12-24T09:58:03;5.50;99.90
9177;DHT22;4623;54.310;10.112;2022-12-24T10:00:35;5.50;99.90
9177;DHT22;4623;54.310;10.112;2022-12-24T10:03:14;5.50;99.90
9177;DHT22;4623;54.310;10.112;2022-12-24T10:08:38;5.50;99.90
9177;DHT22;4623;54.310;10.112;2022-12-24T10:11:35;5.50;99.90
9177;DHT22;4623;54.310;10.112;2022-12-24T10:14:29;5.40;99.90
9177;DHT22;4623;54.310;10.112;2022-12-24T10:20:24;5.50;99.90
9177;DHT22;4623;54.310;10.112;2022-12-24T10:23:23;5.50;99.90
9177;DHT22;4623;54.310;10.112;2022-12-24T10:26:16;5.50;99.90
9177;DHT22;4623;54.310;10.112;2022-12-24T10:28:51;5.50;99.90
9177;DHT22;4623;54.310;10.112;2022-12-24T10:31:22;5.50;99.90
9177;DHT22;4623;54.310;10.112;2022-12-24T10:33:52;5.40;99.90
9177;DHT22;4623;54.310;10.112;2022-12-24T10:36:27;5.50;99.90
9177;DHT22;4623;54.310;10.112;2022-12-24T10:38:53;5.50;99.90
9177;DHT22;4623;54.310;10.112;2022-12-24T10:41:19;5.50;99.90
9177;DHT22;4623;54.310;10.112;2022-12-24T10:43:45;5.50;99.90
9177;DHT22;4623;54.310;10.112;2022-12-24T10:46:28;5.50;99.90
9177;DHT22;4623;54.310;10.112;2022-12-24T10:48:59;5.60;99.90
9177;DHT22;4623;54.310;10.112;2022-12-24T10:56:23;5.60;99.90
9177;DHT22;4623;54.310;10.112;2022-12-24T10:58:53;5.70;99.90
9177;DHT22;4623;54.310;10.112;2022-12-24T11:01:42;5.70;99.90
9177;DHT22;4623;54.310;10.112;2022-12-24T11:04:15;5.70;99.90
9177;DHT22;4623;54.310;10.112;2022-12-24T11:07:01;5.70;99.90
9177;DHT22;4623;54.310;10.112;2022-12-24T11:09:38;5.70;99.90
9177;DHT22;4623;54.310;10.112;2022-12-24T11:12:22;5.80;99.90
9177;DHT22;4623;54.310;10.112;2022-12-24T11:15:14;5.80;99.90
9177;DHT22;4623;54.310;10.112;2022-12-24T11:17:41;5.70;99.90
9177;DHT22;4623;54.310;10.112;2022-12-24T11:20:17;5.70;99.90
9177;DHT22;4623;54.310;10.112;2022-12-24T11:22:48;5.70;99.90
9177;DHT22;4623;54.310;10.112;2022-12-24T11:25:18;5.70;99.90
9177;DHT22;4623;54.310;10.112;2022-12-24T11:27:46;5.80;99.90
9177;DHT22;4623;54.310;10.112;2022-12-24T11:32:46;5.90;99.90
9177;DHT22;4623;54.310;10.112;2022-12-24T11:35:21;5.80;99.90
9177;DHT22;4623;54.310;10.112;2022-12-24T11:40:35;5.90;99.90
9177;DHT22;4623;54.310;10.112;2022-12-24T11:43:02;5.90;99.90
9177;DHT22;4623;54.310;10.112;2022-12-24T11:45:29;5.80;99.90
9177;DHT22;4623;54.310;10.112;2022-12-24T11:47:56;5.90;99.90
9177;DHT22;4623;54.310;10.112;2022-12-24T11:50:30;5.90;99.90
9177;DHT22;4623;54.310;10.112;2022-12-24T11:55:46;5.90;99.90
9177;DHT22;4623;54.310;10.112;2022-12-24T12:01:01;5.90;99.90
9177;DHT22;4623;54.310;10.112;2022-12-24T12:03:34;5.90;99.90
9177;DHT22;4623;54.310;10.112;2022-12-24T12:06:05;5.90;99.90
9177;DHT22;4623;54.310;10.112;2022-12-24T12:08:34;5.90;99.90
9177;DHT22;4623;54.310;10.112;2022-12-24T12:11:03;6.00;99.90
9177;DHT22;4623;54.310;10.112;2022-12-24T12:13:34;5.90;99.90
9177;DHT22;4623;54.310;10.112;2022-12-24T12:16:16;5.90;99.90
9177;DHT22;4623;54.310;10.112;2022-12-24T12:18:48;5.90;99.90
9177;DHT22;4623;54.310;10.112;2022-12-24T12:21:24;5.90;99.90
9177;DHT22;4623;54.310;10.112;2022-12-24T12:23:52;5.90;99.90
9177;DHT22;4623;54.310;10.112;2022-12-24T12:26:29;5.90;99.90
9177;DHT22;4623;54.310;10.112;2022-12-24T12:29:24;5.90;99.90
9177;DHT22;4623;54.310;10.112;2022-12-24T12:32:01;5.90;99.90
9177;DHT22;4623;54.310;10.112;2022-12-24T12:35:36;5.90;99.90
9177;DHT22;4623;54.310;10.112;2022-12-24T12:37:40;5.90;99.90
9177;DHT22;4623;54.310;10.112;2022-12-24T12:40:15;5.90;99.90
9177;DHT22;4623;54.310;10.112;2022-12-24T12:42:49;5.80;99.90
9177;DHT22;4623;54.310;10.112;2022-12-24T12:45:41;5.70;99.90
9177;DHT22;4623;54.310;10.112;2022-12-24T12:54:07;5.80;99.90
9177;DHT22;4623;54.310;10.112;2022-12-24T12:56:43;5.70;99.90
9177;DHT22;4623;54.310;10.112;2022-12-24T13:16:06;5.80;99.90
9177;DHT22;4623;54.310;10.112;2022-12-24T13:21:43;5.80;99.90
9177;DHT22;4623;54.310;10.112;2022-12-24T13:24:23;5.80;99.90
9177;DHT22;4623;54.310;10.112;2022-12-24T13:27:16;5.80;99.90
9177;DHT22;4623;54.310;10.112;2022-12-24T13:30:30;5.80;99.90
9177;DHT22;4623;54.310;10.112;2022-12-24T13:37:43;5.80;99.90
9177;DHT22;4623;54.310;10.112;2022-12-24T13:48:21;5.80;99.90
9177;DHT22;4623;54.310;10.112;2022-12-24T13:50:52;5.80;99.90
9177;DHT22;4623;54.310;10.112;2022-12-24T13:56:04;5.80;99.90
9177;DHT22;4623;54.310;10.112;2022-12-24T13:58:33;5.80;99.90
9177;DHT22;4623;54.310;10.112;2022-12-24T14:01:02;5.80;99.90
9177;DHT22;4623;54.310;10.112;2022-12-24T14:03:32;5.80;99.90
9177;DHT22;4623;54.310;10.112;2022-12-24T14:06:29;5.90;99.90
9177;DHT22;4623;54.310;10.112;2022-12-24T14:09:06;5.80;99.90
9177;DHT22;4623;54.310;10.112;2022-12-24T14:17:01;5.90;99.90
9177;DHT22;4623;54.310;10.112;2022-12-24T14:19:38;5.80;99.90
9177;DHT22;4623;54.310;10.112;2022-12-24T14:22:44;5.80;99.90
9177;DHT22;4623;54.310;10.112;2022-12-24T14:25:16;5.80;99.90
9177;DHT22;4623;54.310;10.112;2022-12-24T14:27:45;5.80;99.90
9177;DHT22;4623;54.310;10.112;2022-12-24T14:30:25;5.80;99.90
9177;DHT22;4623;54.310;10.112;2022-12-24T14:32:52;5.80;99.90
9177;DHT22;4623;54.310;10.112;2022-12-24T14:35:21;5.80;99.90
9177;DHT22;4623;54.310;10.112;2022-12-24T14:38:34;5.90;99.90
9177;DHT22;4623;54.310;10.112;2022-12-24T14:40:42;5.80;99.90
9177;DHT22;4623;54.310;10.112;2022-12-24T14:43:34;5.80;99.90
9177;DHT22;4623;54.310;10.112;2022-12-24T14:48:51;5.80;99.90
9177;DHT22;4623;54.310;10.112;2022-12-24T14:56:20;5.80;99.90
9177;DHT22;4623;54.310;10.112;2022-12-24T14:58:47;5.80;99.90
9177;DHT22;4623;54.310;10.112;2022-12-24T15:01:30;5.80;99.90
9177;DHT22;4623;54.310;10.112;2022-12-24T15:06:31;5.80;99.90
9177;DHT22;4623;54.310;10.112;2022-12-24T15:08:57;5.80;99.90
9177;DHT22;4623;54.310;10.112;2022-12-24T15:11:23;5.70;99.90
9177;DHT22;4623;54.310;10.112;2022-12-24T15:13:52;5.80;99.90
9177;DHT22;4623;54.310;10.112;2022-12-24T15:16:23;5.80;99.90
9177;DHT22;4623;54.310;10.112;2022-12-24T15:18:56;5.80;99.90
9177;DHT22;4623;54.310;10.112;2022-12-24T15:21:43;5.80;99.90
9177;DHT22;4623;54.310;10.112;2022-12-24T15:24:26;5.80;99.90
9177;DHT22;4623;54.310;10.112;2022-12-24T15:26:52;5.90;99.90
9177;DHT22;4623;54.310;10.112;2022-12-24T15:29:24;5.90;99.90
9177;DHT22;4623;54.310;10.112;2022-12-24T15:32:01;5.90;99.90
9177;DHT22;4623;54.310;10.112;2022-12-24T15:34:37;5.90;99.90
9177;DHT22;4623;54.310;10.112;2022-12-24T15:37:19;5.90;99.90
9177;DHT22;4623;54.310;10.112;2022-12-24T15:42:19;5.90;99.90
9177;DHT22;4623;54.310;10.112;2022-12-24T15:47:29;5.90;99.90
9177;DHT22;4623;54.310;10.112;2022-12-24T15:50:24;5.90;99.90
9177;DHT22;4623;54.310;10.112;2022-12-24T15:52:48;6.00;99.90
9177;DHT22;4623;54.310;10.112;2022-12-24T15:55:28;6.00;99.90
9177;DHT22;4623;54.310;10.112;2022-12-24T15:57:55;6.00;99.90
9177;DHT22;4623;54.310;10.112;2022-12-24T16:00:26;6.10;99.90
9177;DHT22;4623;54.310;10.112;2022-12-24T16:03:18;6.10;99.90
9177;DHT22;4623;54.310;10.112;2022-12-24T16:05:45;6.10;99.90
9177;DHT22;4623;54.310;10.112;2022-12-24T16:13:24;6.00;99.90
9177;DHT22;4623;54.310;10.112;2022-12-24T16:18:26;6.00;99.90
9177;DHT22;4623;54.310;10.112;2022-12-24T16:20:54;5.90;99.90
9177;DHT22;4623;54.310;10.112;2022-12-24T16:23:23;5.90;99.90
9177;DHT22;4623;54.310;10.112;2022-12-24T16:25:50;5.90;99.90
9177;DHT22;4623;54.310;10.112;2022-12-24T16:28:17;5.90;99.90
9177;DHT22;4623;54.310;10.112;2022-12-24T16:30:44;5.90;99.90
9177;DHT22;4623;54.310;10.112;2022-12-24T16:33:18;5.90;99.90
9177;DHT22;4623;54.310;10.112;2022-12-24T16:35:45;5.90;99.90
9177;DHT22;4623;54.310;10.112;2022-12-24T16:38:11;6.00;99.90
9177;DHT22;4623;54.310;10.112;2022-12-24T16:40:39;5.90;99.90
9177;DHT22;4623;54.310;10.112;2022-12-24T16:43:04;5.90;99.90
9177;DHT22;4623;54.310;10.112;2022-12-24T16:45:48;5.90;99.90
9177;DHT22;4623;54.310;10.112;2022-12-24T16:48:22;5.90;99.90
9177;DHT22;4623;54.310;10.112;2022-12-24T16:50:49;6.00;99.90
9177;DHT22;4623;54.310;10.112;2022-12-24T16:53:16;6.00;99.90
9177;DHT22;4623;54.310;10.112;2022-12-24T16:55:42;6.00;99.90
9177;DHT22;4623;54.310;10.112;2022-12-24T16:58:11;6.00;99.90
9177;DHT22;4623;54.310;10.112;2022-12-24T17:00:37;6.10;99.90
9177;DHT22;4623;54.310;10.112;2022-12-24T17:03:02;6.00;99.90
9177;DHT22;4623;54.310;10.112;2022-12-24T17:05:28;6.10;99.90
9177;DHT22;4623;54.310;10.112;2022-12-24T17:07:54;6.00;99.90
9177;DHT22;4623;54.310;10.112;2022-12-24T17:10:19;5.90;99.90
9177;DHT22;4623;54.310;10.112;2022-12-24T17:12:45;5.90;99.90
9177;DHT22;4623;54.310;10.112;2022-12-24T17:15:11;5.90;99.90
9177;DHT22;4623;54.310;10.112;2022-12-24T17:17:36;6.00;99.90
9177;DHT22;4623;54.310;10.112;2022-12-24T17:20:03;6.00;99.90
9177;DHT22;4623;54.310;10.112;2022-12-24T17:22:29;6.00;99.90
9177;DHT22;4623;54.310;10.112;2022-12-24T17:24:55;6.00;99.90
9177;DHT22;4623;54.310;10.112;2022-12-24T17:27:21;6.00;99.90
9177;DHT22;4623;54.310;10.112;2022-12-24T17:29:47;6.00;99.90
9177;DHT22;4623;54.310;10.112;2022-12-24T17:32:13;6.00;99.90
9177;DHT22;4623;54.310;10.112;2022-12-24T17:34:39;6.00;99.90
9177;DHT22;4623;54.310;10.112;2022-12-24T17:37:04;6.00;99.90
9177;DHT22;4623;54.310;10.112;2022-12-24T17:39:30;6.00;99.90
9177;DHT22;4623;54.310;10.112;2022-12-24T17:41:55;6.00;99.90
9177;DHT22;4623;54.310;10.112;2022-12-24T17:44:21;6.00;99.90
9177;DHT22;4623;54.310;10.112;2022-12-24T17:46:47;6.10;99.90
9177;DHT22;4623;54.310;10.112;2022-12-24T17:49:13;6.10;99.90
9177;DHT22;4623;54.310;10.112;2022-12-24T17:51:38;6.00;99.90
9177;DHT22;4623;54.310;10.112;2022-12-24T17:54:04;6.00;99.90
9177;DHT22;4623;54.310;10.112;2022-12-24T17:56:29;6.10;99.90
9177;DHT22;4623;54.310;10.112;2022-12-24T17:58:55;6.20;99.90
9177;DHT22;4623;54.310;10.112;2022-12-24T18:01:23;6.20;99.90
9177;DHT22;4623;54.310;10.112;2022-12-24T18:03:50;6.20;99.90
9177;DHT22;4623;54.310;10.112;2022-12-24T18:06:18;6.30;99.90
9177;DHT22;4623;54.310;10.112;2022-12-24T18:08:45;6.30;99.90
9177;DHT22;4623;54.310;10.112;2022-12-24T18:11:17;6.30;99.90
9177;DHT22;4623;54.310;10.112;2022-12-24T18:13:43;6.20;99.90
9177;DHT22;4623;54.310;10.112;2022-12-24T18:16:17;6.20;99.90
9177;DHT22;4623;54.310;10.112;2022-12-24T18:18:44;6.10;99.90